sensor_id;sensor_type;location;lat;lon;timestamp;temperature;humidity
30520;DHT22;17300;50.374;8.006;2023-04-28T00:02:13;16.10;41.40
30520;DHT22;17300;50.374;8.006;2023-04-28T00:04:40;16.10;41.60
30520;DHT22;17300;50.374;8.006;2023-04-28T00:07:06;16.20;41.80
30520;DHT22;17300;50.374;8.006;2023-04-28T00:09:33;16.10;41.80
30520;DHT22;17300;50.374;8.006;2023-04-28T00:12:01;16.10;41.90
30520;DHT22;17300;50.374;8.006;2023-04-28T00:14:28;16.10;42.10
30520;DHT22;17300;50.374;8.006;2023-04-28T00:16:54;16.10;42.10
30520;DHT22;17300;50.374;8.006;2023-04-28T00:19:23;16.00;42.10
30520;DHT22;17300;50.374;8.006;2023-04-28T00:21:50;16.00;42.10
30520;DHT22;17300;50.374;8.006;2023-04-28T00:24:16;16.10;42.10
30520;DHT22;17300;50.374;8.006;2023-04-28T00:26:43;16.00;42.00
30520;DHT22;17300;50.374;8.006;2023-04-28T00:29:11;16.00;42.10
30520;DHT22;17300;50.374;8.006;2023-04-28T00:31:38;16.00;42.20
30520;DHT22;17300;50.374;8.006;2023-04-28T00:34:04;16.00;42.20
30520;DHT22;17300;50.374;8.006;2023-04-28T00:36:31;16.00;42.30
30520;DHT22;17300;50.374;8.006;2023-04-28T00:38:58;16.00;42.40
30520;DHT22;17300;50.374;8.006;2023-04-28T00:41:24;16.00;42.60
30520;DHT22;17300;50.374;8.006;2023-04-28T00:43:51;16.00;42.50
30520;DHT22;17300;50.374;8.006;2023-04-28T00:46:21;16.00;42.50
30520;DHT22;17300;50.374;8.006;2023-04-28T00:48:49;16.00;42.90
30520;DHT22;17300;50.374;8.006;2023-04-28T00:51:16;16.00;42.70
30520;DHT22;17300;50.374;8.006;2023-04-28T00:53:43;16.00;42.90
30520;DHT22;17300;50.374;8.006;2023-04-28T00:56:10;15.90;43.00
30520;DHT22;17300;50.374;8.006;2023-04-28T00:58:37;15.90;43.00
30520;DHT22;17300;50.374;8.006;2023-04-28T01:01:05;15.90;43.10
30520;DHT22;17300;50.374;8.006;2023-04-28T01:03:35;15.90;43.10
30520;DHT22;17300;50.374;8.006;2023-04-28T01:06:04;15.90;43.30
30520;DHT22;17300;50.374;8.006;2023-04-28T01:08:32;15.90;43.40
30520;DHT22;17300;50.374;8.006;2023-04-28T01:10:59;15.90;43.60
30520;DHT22;17300;50.374;8.006;2023-04-28T01:13:26;15.90;43.50
30520;DHT22;17300;50.374;8.006;2023-04-28T01:15:53;15.90;43.50
30520;DHT22;17300;50.374;8.006;2023-04-28T01:18:20;15.90;43.50
30520;DHT22;17300;50.374;8.006;2023-04-28T01:20:49;15.90;43.50
30520;DHT22;17300;50.374;8.006;2023-04-28T01:23:16;15.90;43.50
30520;DHT22;17300;50.374;8.006;2023-04-28T01:25:44;15.90;43.50
30520;DHT22;17300;50.374;8.006;2023-04-28T01:28:11;15.90;43.60
30520;DHT22;17300;50.374;8.006;2023-04-28T01:30:37;15.90;43.70
30520;DHT22;17300;50.374;8.006;2023-04-28T01:33:04;15.90;43.90
30520;DHT22;17300;50.374;8.006;2023-04-28T01:35:31;15.90;44.50
30520;DHT22;17300;50.374;8.006;2023-04-28T01:37:57;15.80;44.00
30520;DHT22;17300;50.374;8.006;2023-04-28T01:40:24;15.80;44.10
30520;DHT22;17300;50.374;8.006;2023-04-28T01:42:52;15.80;44.20
30520;DHT22;17300;50.374;8.006;2023-04-28T01:45:19;15.80;44.50
30520;DHT22;17300;50.374;8.006;2023-04-28T01:47:45;15.80;44.50
30520;DHT22;17300;50.374;8.006;2023-04-28T01:50:12;15.80;44.60
30520;DHT22;17300;50.374;8.006;2023-04-28T01:52:39;15.70;44.70
30520;DHT22;17300;50.374;8.006;2023-04-28T01:55:06;15.70;44.80
30520;DHT22;17300;50.374;8.006;2023-04-28T01:57:32;15.70;45.00
30520;DHT22;17300;50.374;8.006;2023-04-28T02:00:01;15.70;45.00
30520;DHT22;17300;50.374;8.006;2023-04-28T02:02:29;15.70;45.10
30520;DHT22;17300;50.374;8.006;2023-04-28T02:04:56;15.70;45.10
30520;DHT22;17300;50.374;8.006;2023-04-28T02:07:23;15.70;45.90
30520;DHT22;17300;50.374;8.006;2023-04-28T02:09:50;15.70;45.30
30520;DHT22;17300;50.374;8.006;2023-04-28T02:12:16;15.70;45.40
30520;DHT22;17300;50.374;8.006;2023-04-28T02:14:43;15.60;45.50
30520;DHT22;17300;50.374;8.006;2023-04-28T02:17:11;15.60;45.50
30520;DHT22;17300;50.374;8.006;2023-04-28T02:19:38;15.60;45.70
30520;DHT22;17300;50.374;8.006;2023-04-28T02:22:05;15.60;45.70
30520;DHT22;17300;50.374;8.006;2023-04-28T02:24:34;15.60;45.70
30520;DHT22;17300;50.374;8.006;2023-04-28T02:27:00;15.60;46.00
30520;DHT22;17300;50.374;8.006;2023-04-28T02:29:27;15.60;45.80
30520;DHT22;17300;50.374;8.006;2023-04-28T02:31:54;15.60;45.90
30520;DHT22;17300;50.374;8.006;2023-04-28T02:34:22;15.60;46.00
30520;DHT22;17300;50.374;8.006;2023-04-28T02:36:49;15.60;46.10
30520;DHT22;17300;50.374;8.006;2023-04-28T02:39:16;15.50;46.10
30520;DHT22;17300;50.374;8.006;2023-04-28T02:41:42;15.50;46.20
30520;DHT22;17300;50.374;8.006;2023-04-28T02:44:09;15.50;46.30
30520;DHT22;17300;50.374;8.006;2023-04-28T02:46:36;15.50;46.40
30520;DHT22;17300;50.374;8.006;2023-04-28T02:49:02;15.50;46.50
30520;DHT22;17300;50.374;8.006;2023-04-28T02:51:30;15.50;46.70
30520;DHT22;17300;50.374;8.006;2023-04-28T02:53:57;15.50;46.90
30520;DHT22;17300;50.374;8.006;2023-04-28T02:56:23;15.50;46.90
30520;DHT22;17300;50.374;8.006;2023-04-28T02:58:50;15.50;47.00
30520;DHT22;17300;50.374;8.006;2023-04-28T03:01:17;15.50;47.00
30520;DHT22;17300;50.374;8.006;2023-04-28T03:03:43;15.50;47.20
30520;DHT22;17300;50.374;8.006;2023-04-28T03:06:10;15.50;47.20
30520;DHT22;17300;50.374;8.006;2023-04-28T03:08:38;15.50;47.20
30520;DHT22;17300;50.374;8.006;2023-04-28T03:11:05;15.40;47.30
30520;DHT22;17300;50.374;8.006;2023-04-28T03:13:31;15.40;47.20
30520;DHT22;17300;50.374;8.006;2023-04-28T03:16:00;15.40;47.30
30520;DHT22;17300;50.374;8.006;2023-04-28T03:18:27;15.40;47.40
30520;DHT22;17300;50.374;8.006;2023-04-28T03:20:53;15.40;47.40
30520;DHT22;17300;50.374;8.006;2023-04-28T03:23:20;15.40;47.40
30520;DHT22;17300;50.374;8.006;2023-04-28T03:25:48;15.40;47.50
30520;DHT22;17300;50.374;8.006;2023-04-28T03:28:14;15.40;47.70
30520;DHT22;17300;50.374;8.006;2023-04-28T03:30:41;15.40;47.60
30520;DHT22;17300;50.374;8.006;2023-04-28T03:33:08;15.40;47.60
30520;DHT22;17300;50.374;8.006;2023-04-28T03:35:34;15.40;47.70
30520;DHT22;17300;50.374;8.006;2023-04-28T03:38:01;15.40;47.70
30520;DHT22;17300;50.374;8.006;2023-04-28T03:40:28;15.40;47.80
30520;DHT22;17300;50.374;8.006;2023-04-28T03:42:56;15.30;47.80
30520;DHT22;17300;50.374;8.006;2023-04-28T03:45:23;15.30;47.80
30520;DHT22;17300;50.374;8.006;2023-04-28T03:47:50;15.30;47.80
30520;DHT22;17300;50.374;8.006;2023-04-28T03:50:17;15.30;47.90
30520;DHT22;17300;50.374;8.006;2023-04-28T03:52:44;15.30;47.90
30520;DHT22;17300;50.374;8.006;2023-04-28T03:55:10;15.30;48.00
30520;DHT22;17300;50.374;8.006;2023-04-28T03:57:37;15.30;48.10
30520;DHT22;17300;50.374;8.006;2023-04-28T04:00:07;15.20;48.10
30520;DHT22;17300;50.374;8.006;2023-04-28T04:02:34;15.20;48.40
30520;DHT22;17300;50.374;8.006;2023-04-28T04:05:01;15.20;48.30
30520;DHT22;17300;50.374;8.006;2023-04-28T04:07:27;15.20;48.30
30520;DHT22;17300;50.374;8.006;2023-04-28T04:09:54;15.20;48.20
30520;DHT22;17300;50.374;8.006;2023-04-28T04:12:21;15.20;48.20
30520;DHT22;17300;50.374;8.006;2023-04-28T04:14:47;15.20;48.40
30520;DHT22;17300;50.374;8.006;2023-04-28T04:17:15;15.20;48.50
30520;DHT22;17300;50.374;8.006;2023-04-28T04:19:42;15.20;48.70
30520;DHT22;17300;50.374;8.006;2023-04-28T04:22:09;15.20;48.60
30520;DHT22;17300;50.374;8.006;2023-04-28T04:24:35;15.20;48.70
30520;DHT22;17300;50.374;8.006;2023-04-28T04:27:02;15.10;48.70
30520;DHT22;17300;50.374;8.006;2023-04-28T04:29:29;15.20;48.90
30520;DHT22;17300;50.374;8.006;2023-04-28T04:31:56;15.20;49.00
30520;DHT22;17300;50.374;8.006;2023-04-28T04:34:24;15.10;48.90
30520;DHT22;17300;50.374;8.006;2023-04-28T04:36:50;15.20;49.20
30520;DHT22;17300;50.374;8.006;2023-04-28T04:39:17;15.20;49.10
30520;DHT22;17300;50.374;8.006;2023-04-28T04:41:43;15.20;49.10
30520;DHT22;17300;50.374;8.006;2023-04-28T04:44:10;15.20;49.20
30520;DHT22;17300;50.374;8.006;2023-04-28T04:46:37;15.20;49.30
30520;DHT22;17300;50.374;8.006;2023-04-28T04:49:04;15.10;49.10
30520;DHT22;17300;50.374;8.006;2023-04-28T04:51:32;15.20;49.10
30520;DHT22;17300;50.374;8.006;2023-04-28T04:53:59;15.20;49.30
30520;DHT22;17300;50.374;8.006;2023-04-28T04:56:26;15.20;49.30
30520;DHT22;17300;50.374;8.006;2023-04-28T04:58:52;15.20;49.30
30520;DHT22;17300;50.374;8.006;2023-04-28T05:01:19;15.10;49.30
30520;DHT22;17300;50.374;8.006;2023-04-28T05:03:47;15.20;49.20
30520;DHT22;17300;50.374;8.006;2023-04-28T05:06:15;15.20;49.20
30520;DHT22;17300;50.374;8.006;2023-04-28T05:08:45;15.10;49.20
30520;DHT22;17300;50.374;8.006;2023-04-28T05:11:12;15.10;49.20
30520;DHT22;17300;50.374;8.006;2023-04-28T05:13:39;15.10;49.20
30520;DHT22;17300;50.374;8.006;2023-04-28T05:16:06;15.10;49.30
30520;DHT22;17300;50.374;8.006;2023-04-28T05:18:33;15.10;49.30
30520;DHT22;17300;50.374;8.006;2023-04-28T05:21:00;15.10;49.30
30520;DHT22;17300;50.374;8.006;2023-04-28T05:23:26;15.10;49.50
30520;DHT22;17300;50.374;8.006;2023-04-28T05:25:54;15.10;49.50
30520;DHT22;17300;50.374;8.006;2023-04-28T05:28:21;15.10;50.30
30520;DHT22;17300;50.374;8.006;2023-04-28T05:30:48;15.10;49.50
30520;DHT22;17300;50.374;8.006;2023-04-28T05:33:15;15.10;49.50
30520;DHT22;17300;50.374;8.006;2023-04-28T05:35:41;15.10;49.50
30520;DHT22;17300;50.374;8.006;2023-04-28T05:38:08;15.10;49.50
30520;DHT22;17300;50.374;8.006;2023-04-28T05:40:35;15.10;49.50
30520;DHT22;17300;50.374;8.006;2023-04-28T05:43:03;15.10;49.60
30520;DHT22;17300;50.374;8.006;2023-04-28T05:45:29;15.10;49.80
30520;DHT22;17300;50.374;8.006;2023-04-28T05:47:56;15.20;49.70
30520;DHT22;17300;50.374;8.006;2023-04-28T05:50:23;15.20;49.80
30520;DHT22;17300;50.374;8.006;2023-04-28T05:52:50;15.20;49.70
30520;DHT22;17300;50.374;8.006;2023-04-28T05:55:16;15.20;49.60
30520;DHT22;17300;50.374;8.006;2023-04-28T05:57:43;15.20;49.40
30520;DHT22;17300;50.374;8.006;2023-04-28T06:00:13;15.20;49.50
30520;DHT22;17300;50.374;8.006;2023-04-28T06:02:39;15.20;49.60
30520;DHT22;17300;50.374;8.006;2023-04-28T06:05:07;15.20;49.50
30520;DHT22;17300;50.374;8.006;2023-04-28T06:07:34;15.20;49.60
30520;DHT22;17300;50.374;8.006;2023-04-28T06:10:01;15.20;49.70
30520;DHT22;17300;50.374;8.006;2023-04-28T06:12:28;15.20;49.80
30520;DHT22;17300;50.374;8.006;2023-04-28T06:14:54;15.20;49.90
30520;DHT22;17300;50.374;8.006;2023-04-28T06:17:23;15.20;49.90
30520;DHT22;17300;50.374;8.006;2023-04-28T06:19:50;15.20;50.00
30520;DHT22;17300;50.374;8.006;2023-04-28T06:22:18;15.20;50.10
30520;DHT22;17300;50.374;8.006;2023-04-28T06:24:45;15.20;50.10
30520;DHT22;17300;50.374;8.006;2023-04-28T06:27:12;15.30;50.30
30520;DHT22;17300;50.374;8.006;2023-04-28T06:29:39;15.30;50.40
30520;DHT22;17300;50.374;8.006;2023-04-28T06:32:05;15.30;50.30
30520;DHT22;17300;50.374;8.006;2023-04-28T06:34:33;15.40;50.30
30520;DHT22;17300;50.374;8.006;2023-04-28T06:37:00;15.30;50.30
30520;DHT22;17300;50.374;8.006;2023-04-28T06:39:27;15.40;50.30
30520;DHT22;17300;50.374;8.006;2023-04-28T06:41:53;15.40;50.40
30520;DHT22;17300;50.374;8.006;2023-04-28T06:44:20;15.40;50.50
30520;DHT22;17300;50.374;8.006;2023-04-28T06:46:47;15.50;50.50
30520;DHT22;17300;50.374;8.006;2023-04-28T06:49:14;15.50;50.70
30520;DHT22;17300;50.374;8.006;2023-04-28T06:51:42;15.50;50.80
30520;DHT22;17300;50.374;8.006;2023-04-28T06:54:08;15.50;50.80
30520;DHT22;17300;50.374;8.006;2023-04-28T06:56:35;15.60;50.70
30520;DHT22;17300;50.374;8.006;2023-04-28T06:59:02;15.60;50.70
30520;DHT22;17300;50.374;8.006;2023-04-28T07:01:29;15.60;50.80
30520;DHT22;17300;50.374;8.006;2023-04-28T07:03:55;15.60;50.70
30520;DHT22;17300;50.374;8.006;2023-04-28T07:06:22;15.60;50.40
30520;DHT22;17300;50.374;8.006;2023-04-28T07:08:50;15.60;50.50
30520;DHT22;17300;50.374;8.006;2023-04-28T07:11:17;15.60;50.90
30520;DHT22;17300;50.374;8.006;2023-04-28T07:13:43;15.70;51.20
30520;DHT22;17300;50.374;8.006;2023-04-28T07:16:13;15.80;51.40
30520;DHT22;17300;50.374;8.006;2023-04-28T07:18:40;15.80;51.50
30520;DHT22;17300;50.374;8.006;2023-04-28T07:21:07;15.90;51.60
30520;DHT22;17300;50.374;8.006;2023-04-28T07:23:42;15.90;51.50
30520;DHT22;17300;50.374;8.006;2023-04-28T07:26:43;16.00;51.50
30520;DHT22;17300;50.374;8.006;2023-04-28T07:29:10;16.10;52.00
30520;DHT22;17300;50.374;8.006;2023-04-28T07:31:38;16.10;51.20
30520;DHT22;17300;50.374;8.006;2023-04-28T07:34:09;16.10;51.20
30520;DHT22;17300;50.374;8.006;2023-04-28T07:36:36;16.10;51.40
30520;DHT22;17300;50.374;8.006;2023-04-28T07:39:03;16.20;51.20
30520;DHT22;17300;50.374;8.006;2023-04-28T07:41:32;16.20;51.20
30520;DHT22;17300;50.374;8.006;2023-04-28T07:44:02;16.10;51.20
30520;DHT22;17300;50.374;8.006;2023-04-28T07:46:30;16.20;51.50
30520;DHT22;17300;50.374;8.006;2023-04-28T07:48:56;16.20;51.50
30520;DHT22;17300;50.374;8.006;2023-04-28T07:51:23;16.20;51.60
30520;DHT22;17300;50.374;8.006;2023-04-28T07:53:50;16.20;51.50
30520;DHT22;17300;50.374;8.006;2023-04-28T07:56:16;16.30;51.70
30520;DHT22;17300;50.374;8.006;2023-04-28T07:58:43;16.30;51.80
30520;DHT22;17300;50.374;8.006;2023-04-28T08:01:11;16.30;51.60
30520;DHT22;17300;50.374;8.006;2023-04-28T08:03:38;16.30;51.70
30520;DHT22;17300;50.374;8.006;2023-04-28T08:06:05;16.40;51.70
30520;DHT22;17300;50.374;8.006;2023-04-28T08:08:32;16.40;51.80
30520;DHT22;17300;50.374;8.006;2023-04-28T08:10:59;16.40;51.70
30520;DHT22;17300;50.374;8.006;2023-04-28T08:13:26;16.50;51.90
30520;DHT22;17300;50.374;8.006;2023-04-28T08:15:53;16.60;52.10
30520;DHT22;17300;50.374;8.006;2023-04-28T08:18:22;16.60;52.20
30520;DHT22;17300;50.374;8.006;2023-04-28T08:20:49;16.70;52.50
30520;DHT22;17300;50.374;8.006;2023-04-28T08:23:15;16.80;52.40
30520;DHT22;17300;50.374;8.006;2023-04-28T08:25:42;16.90;52.20
30520;DHT22;17300;50.374;8.006;2023-04-28T08:28:09;17.00;52.20
30520;DHT22;17300;50.374;8.006;2023-04-28T08:30:36;17.00;52.20
30520;DHT22;17300;50.374;8.006;2023-04-28T08:33:03;17.10;52.10
30520;DHT22;17300;50.374;8.006;2023-04-28T08:35:31;17.10;52.00
30520;DHT22;17300;50.374;8.006;2023-04-28T08:37:58;17.20;52.00
30520;DHT22;17300;50.374;8.006;2023-04-28T08:40:24;17.30;52.00
30520;DHT22;17300;50.374;8.006;2023-04-28T08:42:54;17.30;51.80
30520;DHT22;17300;50.374;8.006;2023-04-28T08:45:23;17.40;51.80
30520;DHT22;17300;50.374;8.006;2023-04-28T08:47:50;17.40;51.80
30520;DHT22;17300;50.374;8.006;2023-04-28T08:50:21;17.50;51.80
30520;DHT22;17300;50.374;8.006;2023-04-28T08:52:51;17.50;51.80
30520;DHT22;17300;50.374;8.006;2023-04-28T08:55:18;17.40;51.70
30520;DHT22;17300;50.374;8.006;2023-04-28T08:57:47;17.50;51.50
30520;DHT22;17300;50.374;8.006;2023-04-28T09:00:16;17.50;51.50
30520;DHT22;17300;50.374;8.006;2023-04-28T09:02:42;17.50;51.60
30520;DHT22;17300;50.374;8.006;2023-04-28T09:05:10;17.50;51.90
30520;DHT22;17300;50.374;8.006;2023-04-28T09:07:38;17.50;51.90
30520;DHT22;17300;50.374;8.006;2023-04-28T09:10:21;17.50;51.90
30520;DHT22;17300;50.374;8.006;2023-04-28T09:12:51;17.60;52.50
30520;DHT22;17300;50.374;8.006;2023-04-28T09:15:51;17.60;52.40
30520;DHT22;17300;50.374;8.006;2023-04-28T09:18:33;17.80;52.90
30520;DHT22;17300;50.374;8.006;2023-04-28T09:21:11;17.80;52.20
30520;DHT22;17300;50.374;8.006;2023-04-28T09:23:46;18.00;52.50
30520;DHT22;17300;50.374;8.006;2023-04-28T09:26:21;18.00;52.40
30520;DHT22;17300;50.374;8.006;2023-04-28T09:29:10;18.20;52.50
30520;DHT22;17300;50.374;8.006;2023-04-28T09:31:40;18.30;52.50
30520;DHT22;17300;50.374;8.006;2023-04-28T09:34:08;18.50;52.40
30520;DHT22;17300;50.374;8.006;2023-04-28T09:36:37;18.60;52.90
30520;DHT22;17300;50.374;8.006;2023-04-28T09:39:03;18.70;52.20
30520;DHT22;17300;50.374;8.006;2023-04-28T09:41:52;18.90;52.20
30520;DHT22;17300;50.374;8.006;2023-04-28T09:44:25;19.00;52.00
30520;DHT22;17300;50.374;8.006;2023-04-28T09:46:52;19.10;52.00
30520;DHT22;17300;50.374;8.006;2023-04-28T09:49:19;19.20;52.30
30520;DHT22;17300;50.374;8.006;2023-04-28T09:51:46;19.30;52.80
30520;DHT22;17300;50.374;8.006;2023-04-28T09:54:13;19.60;53.60
30520;DHT22;17300;50.374;8.006;2023-04-28T09:56:41;19.90;54.30
30520;DHT22;17300;50.374;8.006;2023-04-28T09:59:10;20.30;55.30
30520;DHT22;17300;50.374;8.006;2023-04-28T10:01:44;20.70;55.90
30520;DHT22;17300;50.374;8.006;2023-04-28T10:04:11;21.30;55.70
30520;DHT22;17300;50.374;8.006;2023-04-28T10:06:38;21.90;56.40
30520;DHT22;17300;50.374;8.006;2023-04-28T10:10:07;22.50;56.70
30520;DHT22;17300;50.374;8.006;2023-04-28T10:12:53;23.20;53.70
30520;DHT22;17300;50.374;8.006;2023-04-28T10:15:22;23.80;53.10
30520;DHT22;17300;50.374;8.006;2023-04-28T10:17:49;24.10;51.70
30520;DHT22;17300;50.374;8.006;2023-04-28T10:20:16;24.30;50.80
30520;DHT22;17300;50.374;8.006;2023-04-28T10:22:54;24.50;50.50
30520;DHT22;17300;50.374;8.006;2023-04-28T10:25:26;24.70;50.00
30520;DHT22;17300;50.374;8.006;2023-04-28T10:27:53;25.00;50.50
30520;DHT22;17300;50.374;8.006;2023-04-28T10:30:22;25.30;50.50
30520;DHT22;17300;50.374;8.006;2023-04-28T10:33:23;25.70;51.90
30520;DHT22;17300;50.374;8.006;2023-04-28T10:35:51;26.50;51.10
30520;DHT22;17300;50.374;8.006;2023-04-28T10:38:18;27.20;53.70
30520;DHT22;17300;50.374;8.006;2023-04-28T10:40:47;28.00;52.60
30520;DHT22;17300;50.374;8.006;2023-04-28T10:43:32;28.80;52.10
30520;DHT22;17300;50.374;8.006;2023-04-28T10:46:01;29.80;49.40
30520;DHT22;17300;50.374;8.006;2023-04-28T10:48:56;30.60;49.60
30520;DHT22;17300;50.374;8.006;2023-04-28T10:51:29;31.40;46.40
30520;DHT22;17300;50.374;8.006;2023-04-28T10:54:16;32.00;45.40
30520;DHT22;17300;50.374;8.006;2023-04-28T11:00:28;32.50;41.00
30520;DHT22;17300;50.374;8.006;2023-04-28T11:02:56;32.50;40.00
30520;DHT22;17300;50.374;8.006;2023-04-28T11:05:23;32.30;39.60
30520;DHT22;17300;50.374;8.006;2023-04-28T11:11:18;31.70;39.20
30520;DHT22;17300;50.374;8.006;2023-04-28T11:13:46;31.40;40.00
30520;DHT22;17300;50.374;8.006;2023-04-28T11:16:14;31.20;40.50
30520;DHT22;17300;50.374;8.006;2023-04-28T11:21:35;30.90;40.60
30520;DHT22;17300;50.374;8.006;2023-04-28T11:24:08;30.80;40.70
30520;DHT22;17300;50.374;8.006;2023-04-28T11:26:36;30.80;39.90
30520;DHT22;17300;50.374;8.006;2023-04-28T11:29:03;30.70;40.20
30520;DHT22;17300;50.374;8.006;2023-04-28T11:31:30;30.70;40.10
30520;DHT22;17300;50.374;8.006;2023-04-28T11:34:01;30.60;39.80
30520;DHT22;17300;50.374;8.006;2023-04-28T11:36:31;30.50;39.50
30520;DHT22;17300;50.374;8.006;2023-04-28T11:39:00;30.40;39.60
30520;DHT22;17300;50.374;8.006;2023-04-28T11:41:29;30.30;39.70
30520;DHT22;17300;50.374;8.006;2023-04-28T11:43:56;30.20;39.80
30520;DHT22;17300;50.374;8.006;2023-04-28T11:46:24;30.10;39.90
30520;DHT22;17300;50.374;8.006;2023-04-28T11:49:03;30.10;39.70
30520;DHT22;17300;50.374;8.006;2023-04-28T11:51:31;30.00;39.50
30520;DHT22;17300;50.374;8.006;2023-04-28T11:53:58;30.00;39.20
30520;DHT22;17300;50.374;8.006;2023-04-28T11:56:25;29.90;39.10
30520;DHT22;17300;50.374;8.006;2023-04-28T11:59:02;29.70;39.60
30520;DHT22;17300;50.374;8.006;2023-04-28T12:01:30;29.70;39.60
30520;DHT22;17300;50.374;8.006;2023-04-28T12:03:57;29.60;39.90
30520;DHT22;17300;50.374;8.006;2023-04-28T12:06:25;29.50;39.60
30520;DHT22;17300;50.374;8.006;2023-04-28T12:08:52;29.30;39.60
30520;DHT22;17300;50.374;8.006;2023-04-28T12:11:19;29.20;39.60
30520;DHT22;17300;50.374;8.006;2023-04-28T12:14:02;29.00;39.50
30520;DHT22;17300;50.374;8.006;2023-04-28T12:16:37;28.70;40.50
30520;DHT22;17300;50.374;8.006;2023-04-28T12:19:07;28.50;40.00
30520;DHT22;17300;50.374;8.006;2023-04-28T12:21:37;28.40;40.10
30520;DHT22;17300;50.374;8.006;2023-04-28T12:24:18;28.20;40.60
30520;DHT22;17300;50.374;8.006;2023-04-28T12:26:46;28.10;41.90
30520;DHT22;17300;50.374;8.006;2023-04-28T12:32:38;27.90;42.40
30520;DHT22;17300;50.374;8.006;2023-04-28T12:35:08;27.90;42.90
30520;DHT22;17300;50.374;8.006;2023-04-28T12:37:37;27.90;42.80
30520;DHT22;17300;50.374;8.006;2023-04-28T12:40:05;27.90;42.30
30520;DHT22;17300;50.374;8.006;2023-04-28T12:42:32;28.00;42.40
30520;DHT22;17300;50.374;8.006;2023-04-28T12:44:58;28.00;42.10
30520;DHT22;17300;50.374;8.006;2023-04-28T12:47:25;28.10;41.80
30520;DHT22;17300;50.374;8.006;2023-04-28T12:49:52;28.10;41.30
30520;DHT22;17300;50.374;8.006;2023-04-28T12:52:21;28.10;41.00
30520;DHT22;17300;50.374;8.006;2023-04-28T12:54:49;28.00;40.50
30520;DHT22;17300;50.374;8.006;2023-04-28T12:57:16;27.90;40.40
30520;DHT22;17300;50.374;8.006;2023-04-28T12:59:44;27.80;40.40
30520;DHT22;17300;50.374;8.006;2023-04-28T13:02:12;27.60;40.40
30520;DHT22;17300;50.374;8.006;2023-04-28T13:04:39;27.40;40.30
30520;DHT22;17300;50.374;8.006;2023-04-28T13:07:07;27.20;40.50
30520;DHT22;17300;50.374;8.006;2023-04-28T13:09:34;27.00;40.80
30520;DHT22;17300;50.374;8.006;2023-04-28T13:12:03;26.90;41.20
30520;DHT22;17300;50.374;8.006;2023-04-28T13:14:30;26.70;41.90
30520;DHT22;17300;50.374;8.006;2023-04-28T13:16:57;26.60;42.30
30520;DHT22;17300;50.374;8.006;2023-04-28T13:19:23;26.50;43.40
30520;DHT22;17300;50.374;8.006;2023-04-28T13:21:52;26.50;43.10
30520;DHT22;17300;50.374;8.006;2023-04-28T13:24:18;26.50;43.10
30520;DHT22;17300;50.374;8.006;2023-04-28T13:26:45;26.50;43.30
30520;DHT22;17300;50.374;8.006;2023-04-28T13:29:13;26.50;43.30
30520;DHT22;17300;50.374;8.006;2023-04-28T13:31:40;26.40;43.10
30520;DHT22;17300;50.374;8.006;2023-04-28T13:34:07;26.30;42.70
30520;DHT22;17300;50.374;8.006;2023-04-28T13:36:40;26.20;42.60
30520;DHT22;17300;50.374;8.006;2023-04-28T13:39:06;26.00;42.50
30520;DHT22;17300;50.374;8.006;2023-04-28T13:41:35;25.80;42.80
30520;DHT22;17300;50.374;8.006;2023-04-28T13:44:02;25.60;43.30
30520;DHT22;17300;50.374;8.006;2023-04-28T13:46:30;25.40;43.90
30520;DHT22;17300;50.374;8.006;2023-04-28T13:48:57;25.10;44.50
30520;DHT22;17300;50.374;8.006;2023-04-28T13:51:23;24.90;44.70
30520;DHT22;17300;50.374;8.006;2023-04-28T13:53:50;24.70;44.90
30520;DHT22;17300;50.374;8.006;2023-04-28T13:56:17;24.40;48.10
30520;DHT22;17300;50.374;8.006;2023-04-28T13:58:43;24.00;50.00
30520;DHT22;17300;50.374;8.006;2023-04-28T14:01:10;23.60;51.80
30520;DHT22;17300;50.374;8.006;2023-04-28T14:09:22;22.30;56.40
30520;DHT22;17300;50.374;8.006;2023-04-28T14:12:05;22.00;59.40
30520;DHT22;17300;50.374;8.006;2023-04-28T14:14:39;21.90;59.50
30520;DHT22;17300;50.374;8.006;2023-04-28T14:17:07;21.70;60.10
30520;DHT22;17300;50.374;8.006;2023-04-28T14:19:33;21.60;61.10
30520;DHT22;17300;50.374;8.006;2023-04-28T14:22:00;21.50;61.90
30520;DHT22;17300;50.374;8.006;2023-04-28T14:24:29;21.40;62.30
30520;DHT22;17300;50.374;8.006;2023-04-28T14:26:56;21.30;62.90
30520;DHT22;17300;50.374;8.006;2023-04-28T14:29:22;21.20;63.40
30520;DHT22;17300;50.374;8.006;2023-04-28T14:31:49;21.00;64.00
30520;DHT22;17300;50.374;8.006;2023-04-28T14:34:15;20.90;64.90
30520;DHT22;17300;50.374;8.006;2023-04-28T14:36:42;20.90;65.50
30520;DHT22;17300;50.374;8.006;2023-04-28T14:39:09;20.90;66.40
30520;DHT22;17300;50.374;8.006;2023-04-28T14:41:38;20.80;66.80
30520;DHT22;17300;50.374;8.006;2023-04-28T14:44:04;20.80;67.30
30520;DHT22;17300;50.374;8.006;2023-04-28T14:46:32;20.80;68.00
30520;DHT22;17300;50.374;8.006;2023-04-28T14:48:59;20.80;68.10
30520;DHT22;17300;50.374;8.006;2023-04-28T14:51:26;20.80;68.70
30520;DHT22;17300;50.374;8.006;2023-04-28T14:53:53;20.80;68.90
30520;DHT22;17300;50.374;8.006;2023-04-28T14:56:20;20.80;69.20
30520;DHT22;17300;50.374;8.006;2023-04-28T14:58:48;20.80;69.40
30520;DHT22;17300;50.374;8.006;2023-04-28T15:01:45;20.80;69.70
30520;DHT22;17300;50.374;8.006;2023-04-28T15:08:19;20.80;70.50
30520;DHT22;17300;50.374;8.006;2023-04-28T15:10:46;20.80;70.50
30520;DHT22;17300;50.374;8.006;2023-04-28T15:13:12;20.80;70.00
30520;DHT22;17300;50.374;8.006;2023-04-28T15:15:43;20.70;70.20
30520;DHT22;17300;50.374;8.006;2023-04-28T15:18:09;20.60;69.80
30520;DHT22;17300;50.374;8.006;2023-04-28T15:20:36;20.60;69.80
30520;DHT22;17300;50.374;8.006;2023-04-28T15:23:03;20.50;70.00
30520;DHT22;17300;50.374;8.006;2023-04-28T15:25:29;20.40;70.30
30520;DHT22;17300;50.374;8.006;2023-04-28T15:27:56;20.40;70.70
30520;DHT22;17300;50.374;8.006;2023-04-28T15:30:23;20.40;71.00
30520;DHT22;17300;50.374;8.006;2023-04-28T15:33:02;20.30;71.20
30520;DHT22;17300;50.374;8.006;2023-04-28T15:35:31;20.30;71.50
30520;DHT22;17300;50.374;8.006;2023-04-28T15:37:59;20.20;71.50
30520;DHT22;17300;50.374;8.006;2023-04-28T15:40:26;20.20;71.80
30520;DHT22;17300;50.374;8.006;2023-04-28T15:42:54;20.20;72.00
30520;DHT22;17300;50.374;8.006;2023-04-28T15:45:21;20.20;72.20
30520;DHT22;17300;50.374;8.006;2023-04-28T15:47:49;20.20;72.40
30520;DHT22;17300;50.374;8.006;2023-04-28T15:50:18;20.10;72.40
30520;DHT22;17300;50.374;8.006;2023-04-28T15:52:44;20.10;72.60
30520;DHT22;17300;50.374;8.006;2023-04-28T15:55:12;20.20;72.90
30520;DHT22;17300;50.374;8.006;2023-04-28T15:57:42;20.20;73.60
30520;DHT22;17300;50.374;8.006;2023-04-28T16:00:17;20.20;74.40
30520;DHT22;17300;50.374;8.006;2023-04-28T16:02:51;20.40;75.40